Time;durP1;ratioP1;P1;durP2;ratioP2;P2;SDS_P1;SDS_P2;PMS_P1;PMS_P2;Temp;Humidity;BMP_temperature;BMP_pressure;BME280_temperature;BME280_humidity;BME280_pressure;Samples;Min_cycle;Max_cycle;Signal;HPM_P1;HPM_P2
2022/02/02 00:00:02;;;;;;;28.73;6.07;;;;;;;;;;5055604;28;20642;-64
2022/02/02 00:02:36;;;;;;;27.73;8.93;;;;;;;;;;5055669;28;20198;-63
2022/02/02 00:05:17;;;;;;;23.45;5.25;;;;;;;;;;5054688;28;20187;-63
2022/02/02 00:07:51;;;;;;;10.43;4.15;;;;;;;;;;5054830;28;20185;-65
2022/02/02 00:10:40;;;;;;;11.50;4.55;;;;;;;;;;5054569;28;20203;-64
2022/02/02 00:13:15;;;;;;;9.18;3.30;;;;;;;;;;5054891;28;20197;-64
2022/02/02 00:15:51;;;;;;;15.00;3.05;;;;;;;;;;5055098;28;20278;-63
2022/02/02 00:18:44;;;;;;;10.55;3.08;;;;;;;;;;5054546;28;20629;-63
2022/02/02 00:21:18;;;;;;;13.07;3.10;;;;;;;;;;5054899;28;20265;-64
2022/02/02 00:23:49;;;;;;;18.20;5.85;;;;;;;;;;5054893;28;20629;-64
2022/02/02 00:26:21;;;;;;;12.55;3.22;;;;;;;;;;5054956;28;20189;-64
2022/02/02 00:28:55;;;;;;;10.38;3.13;;;;;;;;;;5054527;28;20183;-64
2022/02/02 00:31:26;;;;;;;16.77;5.07;;;;;;;;;;5054251;28;20220;-64
2022/02/02 00:33:58;;;;;;;11.02;4.18;;;;;;;;;;5055127;28;20248;-64
2022/02/02 00:36:33;;;;;;;27.98;4.00;;;;;;;;;;5054261;28;20697;-64
2022/02/02 00:39:00;;;;;;;16.33;4.05;;;;;;;;;;5055406;28;20243;-64
2022/02/02 00:41:28;;;;;;;20.10;4.63;;;;;;;;;;5054294;28;20201;-64
2022/02/02 00:43:59;;;;;;;28.02;4.57;;;;;;;;;;5053864;28;20206;-64
2022/02/02 00:46:28;;;;;;;17.52;4.72;;;;;;;;;;5054367;28;20610;-64
2022/02/02 00:49:00;;;;;;;14.02;5.28;;;;;;;;;;5054007;28;20674;-63
2022/02/02 00:51:34;;;;;;;18.85;4.93;;;;;;;;;;5053818;28;20194;-64
2022/02/02 00:54:01;;;;;;;31.27;6.35;;;;;;;;;;5054304;28;20533;-64
2022/02/02 00:56:29;;;;;;;32.50;7.00;;;;;;;;;;5053977;28;20317;-64
2022/02/02 00:58:57;;;;;;;25.60;6.72;;;;;;;;;;5053643;28;20247;-64
2022/02/02 01:01:25;;;;;;;15.68;4.65;;;;;;;;;;5054177;28;20619;-63
2022/02/02 01:03:52;;;;;;;25.38;8.07;;;;;;;;;;5054164;28;20556;-63
2022/02/02 01:06:21;;;;;;;22.48;5.28;;;;;;;;;;5053758;28;20197;-64
2022/02/02 01:09:08;;;;;;;30.50;8.07;;;;;;;;;;5054058;28;20203;-65
2022/02/02 01:12:05;;;;;;;26.95;6.10;;;;;;;;;;5054101;28;20192;-64
2022/02/02 01:17:45;;;;;;;18.88;5.10;;;;;;;;;;5053525;28;20196;-63
2022/02/02 01:28:41;;;;;;;20.55;4.35;;;;;;;;;;5028103;28;20292;-63
2022/02/02 01:31:12;;;;;;;25.05;8.60;;;;;;;;;;5053124;28;20229;-62
2022/02/02 01:33:39;;;;;;;19.75;5.80;;;;;;;;;;5053247;28;20216;-63
2022/02/02 01:36:08;;;;;;;21.13;5.05;;;;;;;;;;5052733;28;20204;-64
2022/02/02 01:38:36;;;;;;;25.10;5.63;;;;;;;;;;5053438;28;20292;-63
2022/02/02 01:41:07;;;;;;;30.38;7.05;;;;;;;;;;5053080;28;20206;-63
2022/02/02 01:43:39;;;;;;;20.83;5.75;;;;;;;;;;5053199;28;20272;-64
2022/02/02 01:46:10;;;;;;;23.92;5.43;;;;;;;;;;5053111;28;20215;-65
2022/02/02 01:48:45;;;;;;;17.52;5.18;;;;;;;;;;5053483;28;20662;-65
2022/02/02 01:51:43;;;;;;;18.05;4.15;;;;;;;;;;5054035;28;20212;-63
2022/02/02 01:54:31;;;;;;;13.43;2.78;;;;;;;;;;5052926;28;20737;-63
2022/02/02 01:57:02;;;;;;;10.18;2.10;;;;;;;;;;5053079;28;20273;-63
2022/02/02 01:59:39;;;;;;;3.90;1.55;;;;;;;;;;5053210;28;20622;-63
2022/02/02 02:02:07;;;;;;;7.00;2.03;;;;;;;;;;5053517;28;20238;-62
2022/02/02 02:04:35;;;;;;;2.13;1.42;;;;;;;;;;5053213;28;20195;-63
2022/02/02 02:07:03;;;;;;;7.93;2.95;;;;;;;;;;5052879;28;20253;-63
2022/02/02 02:09:30;;;;;;;13.68;2.60;;;;;;;;;;5053127;28;20308;-64
2022/02/02 02:11:58;;;;;;;7.75;2.45;;;;;;;;;;5052863;28;20211;-63
2022/02/02 02:14:47;;;;;;;8.98;3.10;;;;;;;;;;5053473;28;20259;-63
2022/02/02 02:17:15;;;;;;;5.38;2.50;;;;;;;;;;5053554;28;20203;-63
2022/02/02 02:19:47;;;;;;;6.07;2.78;;;;;;;;;;5052714;28;20204;-63
2022/02/02 02:22:16;;;;;;;10.15;4.13;;;;;;;;;;5053123;28;20193;-64
2022/02/02 02:24:45;;;;;;;8.43;3.40;;;;;;;;;;5052662;28;20227;-64
2022/02/02 02:27:16;;;;;;;9.68;3.63;;;;;;;;;;5052644;28;20651;-63
2022/02/02 02:33:04;;;;;;;14.90;4.53;;;;;;;;;;5032756;28;20200;-63
2022/02/02 02:35:46;;;;;;;23.63;5.18;;;;;;;;;;5052912;28;20208;-63
2022/02/02 02:38:41;;;;;;;19.10;5.53;;;;;;;;;;5052924;28;20283;-64
2022/02/02 02:57:45;;;;;;;9.63;4.13;;;;;;;;;;5056360;28;20183;-63
2022/02/02 03:00:29;;;;;;;19.42;4.22;;;;;;;;;;5056518;28;20193;-63
2022/02/02 03:30:35;;;;;;;22.88;5.07;;;;;;;;;;5055627;28;20233;-62
2022/02/02 03:34:38;;;;;;;18.95;5.00;;;;;;;;;;5055273;28;20638;-63
2022/02/02 03:50:10;;;;;;;23.00;5.72;;;;;;;;;;5055054;28;20214;-62
2022/02/02 03:55:32;;;;;;;19.42;5.50;;;;;;;;;;5055339;28;20297;-62
2022/02/02 03:58:15;;;;;;;20.10;5.55;;;;;;;;;;5055117;28;20192;-62
2022/02/02 04:00:57;;;;;;;24.83;5.22;;;;;;;;;;5055191;28;20292;-62
2022/02/02 04:03:42;;;;;;;28.15;5.35;;;;;;;;;;5054748;28;20641;-63
2022/02/02 04:06:16;;;;;;;26.35;5.07;;;;;;;;;;5054830;28;20260;-63
2022/02/02 04:08:43;;;;;;;20.83;6.22;;;;;;;;;;5055342;28;20614;-63
2022/02/02 04:11:15;;;;;;;25.08;6.07;;;;;;;;;;5054427;28;20229;-63
2022/02/02 04:53:08;;;;;;;19.92;6.78;;;;;;;;;;5053865;28;20192;-63
2022/02/02 04:55:36;;;;;;;21.80;5.35;;;;;;;;;;5053286;28;20237;-63
2022/02/02 04:58:20;;;;;;;18.23;5.10;;;;;;;;;;5054252;28;20190;-62
2022/02/02 05:04:18;;;;;;;21.42;4.30;;;;;;;;;;5054426;28;20182;-63
2022/02/02 05:06:50;;;;;;;19.55;6.10;;;;;;;;;;5053460;28;20201;-63
2022/02/02 05:09:32;;;;;;;34.42;6.25;;;;;;;;;;5053785;28;20273;-63
2022/02/02 05:12:39;;;;;;;16.48;4.05;;;;;;;;;;5053148;28;20718;-63
2022/02/02 05:18:05;;;;;;;11.63;3.30;;;;;;;;;;5053422;28;20219;-62
2022/02/02 05:43:13;;;;;;;18.92;4.00;;;;;;;;;;5052737;28;20554;-63
2022/02/02 05:51:18;;;;;;;13.10;3.67;;;;;;;;;;5052798;28;20222;-62
2022/02/02 05:53:45;;;;;;;9.75;2.50;;;;;;;;;;5052982;28;20266;-63
2022/02/02 05:56:13;;;;;;;20.02;6.15;;;;;;;;;;5053157;28;20242;-62
2022/02/02 05:58:45;;;;;;;12.23;3.55;;;;;;;;;;5052703;28;20235;-62
2022/02/02 06:01:13;;;;;;;12.10;3.45;;;;;;;;;;5052935;28;20666;-62
2022/02/02 06:03:45;;;;;;;11.50;2.72;;;;;;;;;;5052969;28;20284;-62
2022/02/02 06:06:13;;;;;;;14.77;3.35;;;;;;;;;;5052541;28;20204;-62
2022/02/02 06:08:43;;;;;;;11.15;3.75;;;;;;;;;;5052374;28;20192;-62
2022/02/02 06:11:12;;;;;;;10.85;3.10;;;;;;;;;;5052552;28;20210;-62
2022/02/02 06:13:44;;;;;;;21.55;4.50;;;;;;;;;;5053313;28;20200;-63
2022/02/02 06:16:14;;;;;;;12.75;4.22;;;;;;;;;;5052419;28;20206;-62
2022/02/02 06:18:41;;;;;;;20.65;3.33;;;;;;;;;;5051943;28;20198;-63
2022/02/02 06:21:09;;;;;;;10.32;3.20;;;;;;;;;;5053178;28;20206;-62
2022/02/02 06:23:38;;;;;;;11.15;2.78;;;;;;;;;;5056432;28;20208;-62
2022/02/02 06:26:06;;;;;;;13.65;3.30;;;;;;;;;;5057410;28;20459;-62
2022/02/02 06:28:34;;;;;;;10.13;3.08;;;;;;;;;;5056727;28;20231;-62
2022/02/02 06:31:05;;;;;;;20.27;3.20;;;;;;;;;;5057033;28;20547;-62
2022/02/02 06:33:33;;;;;;;14.40;3.95;;;;;;;;;;5056565;28;20184;-63
2022/02/02 06:36:01;;;;;;;21.08;4.40;;;;;;;;;;5057352;28;20197;-62
2022/02/02 06:38:29;;;;;;;16.00;3.88;;;;;;;;;;5056469;28;20202;-62
2022/02/02 06:40:57;;;;;;;13.93;3.85;;;;;;;;;;5056481;28;20633;-63
2022/02/02 06:43:25;;;;;;;14.18;3.25;;;;;;;;;;5056725;28;20206;-62
2022/02/02 06:45:53;;;;;;;11.65;3.45;;;;;;;;;;5056009;28;20232;-62
2022/02/02 06:48:22;;;;;;;16.63;3.88;;;;;;;;;;5056245;28;20236;-62
2022/02/02 06:50:56;;;;;;;13.00;3.53;;;;;;;;;;5055865;28;20736;-63
2022/02/02 06:53:28;;;;;;;10.50;3.30;;;;;;;;;;5055758;28;20182;-62
2022/02/02 06:56:10;;;;;;;23.50;3.58;;;;;;;;;;5056250;28;20235;-62
2022/02/02 06:58:46;;;;;;;12.90;3.85;;;;;;;;;;5055876;28;20183;-62
2022/02/02 07:01:30;;;;;;;9.05;3.13;;;;;;;;;;5056735;28;20190;-62
2022/02/02 07:04:06;;;;;;;13.00;3.85;;;;;;;;;;5055835;28;20192;-62
2022/02/02 07:06:44;;;;;;;19.40;4.35;;;;;;;;;;5055777;28;20216;-63
2022/02/02 07:09:25;;;;;;;18.50;4.03;;;;;;;;;;5055849;28;20227;-63
2022/02/02 07:12:01;;;;;;;11.43;3.20;;;;;;;;;;5056486;28;20619;-62
2022/02/02 07:14:39;;;;;;;13.68;4.03;;;;;;;;;;5055893;28;20217;-62
2022/02/02 07:17:21;;;;;;;22.40;3.55;;;;;;;;;;5055460;28;20651;-63
2022/02/02 07:20:03;;;;;;;16.17;4.05;;;;;;;;;;5055990;28;20185;-62
2022/02/02 07:28:10;;;;;;;17.77;3.67;;;;;;;;;;5054240;28;20201;-62
2022/02/02 07:30:54;;;;;;;15.45;4.65;;;;;;;;;;5055984;28;20221;-62
2022/02/02 07:33:26;;;;;;;13.27;4.22;;;;;;;;;;5054703;28;20638;-63
2022/02/02 07:36:03;;;;;;;15.77;3.28;;;;;;;;;;5055715;28;20595;-62
2022/02/02 07:38:37;;;;;;;12.88;3.35;;;;;;;;;;5055209;28;20221;-62
2022/02/02 07:41:07;;;;;;;8.02;3.30;;;;;;;;;;5055240;28;20236;-63
2022/02/02 07:43:37;;;;;;;10.63;4.40;;;;;;;;;;5054883;28;20208;-63
2022/02/02 07:46:05;;;;;;;15.70;3.42;;;;;;;;;;5055083;28;20181;-62
2022/02/02 07:48:36;;;;;;;13.98;3.83;;;;;;;;;;5054786;28;20229;-63
2022/02/02 07:51:04;;;;;;;16.83;3.45;;;;;;;;;;5055355;28;20214;-63
2022/02/02 07:53:38;;;;;;;8.05;2.85;;;;;;;;;;5055303;28;20277;-63
2022/02/02 07:56:11;;;;;;;15.55;3.90;;;;;;;;;;5055230;28;20240;-63
2022/02/02 07:58:40;;;;;;;17.90;4.03;;;;;;;;;;5054692;28;20181;-63
2022/02/02 08:01:08;;;;;;;9.60;2.67;;;;;;;;;;5054827;28;20544;-62
2022/02/02 08:03:45;;;;;;;13.90;3.63;;;;;;;;;;5054832;28;20198;-62
2022/02/02 08:06:13;;;;;;;13.80;3.35;;;;;;;;;;5054576;28;20189;-62
2022/02/02 08:08:44;;;;;;;8.88;3.28;;;;;;;;;;5054869;28;20233;-63
2022/02/02 08:11:13;;;;;;;18.52;3.60;;;;;;;;;;5054909;28;20639;-62
2022/02/02 08:13:43;;;;;;;8.10;2.78;;;;;;;;;;5054622;28;20227;-62
2022/02/02 08:16:13;;;;;;;10.63;3.72;;;;;;;;;;5054606;28;20207;-63
2022/02/02 08:18:44;;;;;;;9.27;3.65;;;;;;;;;;5054272;28;20185;-63
2022/02/02 08:21:11;;;;;;;8.00;3.53;;;;;;;;;;5054809;28;20231;-62
2022/02/02 08:23:40;;;;;;;14.27;3.25;;;;;;;;;;5054063;28;20203;-63
2022/02/02 08:26:13;;;;;;;9.38;2.80;;;;;;;;;;5055217;28;20289;-63
2022/02/02 08:28:40;;;;;;;15.40;4.35;;;;;;;;;;5054199;28;20189;-62
2022/02/02 08:31:08;;;;;;;10.52;3.25;;;;;;;;;;5054391;28;20621;-63
2022/02/02 08:33:38;;;;;;;16.20;3.58;;;;;;;;;;5054254;28;20619;-62
2022/02/02 08:36:09;;;;;;;15.23;3.28;;;;;;;;;;5054023;28;20192;-62
2022/02/02 08:38:48;;;;;;;30.77;5.38;;;;;;;;;;5054456;28;20192;-63
2022/02/02 08:41:23;;;;;;;20.65;3.47;;;;;;;;;;5053944;28;20809;-63
2022/02/02 08:43:56;;;;;;;13.25;4.28;;;;;;;;;;5054362;28;20194;-63
2022/02/02 08:46:27;;;;;;;17.90;4.38;;;;;;;;;;5053732;28;20197;-62
2022/02/02 08:48:57;;;;;;;18.95;4.10;;;;;;;;;;5054318;28;20191;-62
2022/02/02 08:51:29;;;;;;;9.70;3.33;;;;;;;;;;5054505;28;20217;-62
2022/02/02 08:54:07;;;;;;;10.88;3.42;;;;;;;;;;5054527;28;20188;-63
2022/02/02 08:57:05;;;;;;;12.88;3.28;;;;;;;;;;5053701;28;20186;-62
2022/02/02 08:59:38;;;;;;;9.38;3.45;;;;;;;;;;5053397;28;20277;-63
2022/02/02 09:02:10;;;;;;;12.98;3.70;;;;;;;;;;5053577;28;20192;-62
2022/02/02 09:07:22;;;;;;;15.07;3.90;;;;;;;;;;5053653;28;20185;-62
2022/02/02 09:10:03;;;;;;;17.60;4.68;;;;;;;;;;5053693;28;20232;-63
2022/02/02 09:21:53;;;;;;;19.90;3.72;;;;;;;;;;5053240;28;20618;-62
2022/02/02 09:24:08;;;;;;;15.73;3.90;;;;;;;;;;5053010;28;20208;-63
2022/02/02 09:32:38;;;;;;;15.52;4.75;;;;;;;;;;4996872;28;20265;-62
2022/02/02 09:35:08;;;;;;;18.65;4.72;;;;;;;;;;5053037;28;20270;-63
2022/02/02 09:37:35;;;;;;;19.40;4.20;;;;;;;;;;5053554;28;20221;-63
2022/02/02 09:40:16;;;;;;;13.93;3.35;;;;;;;;;;5053328;28;20198;-62
2022/02/02 09:42:44;;;;;;;17.15;5.38;;;;;;;;;;5053142;28;20230;-63
2022/02/02 09:45:16;;;;;;;14.07;4.68;;;;;;;;;;5052881;28;20199;-62
2022/02/02 09:47:51;;;;;;;29.40;5.05;;;;;;;;;;5052893;28;20225;-62
2022/02/02 09:50:24;;;;;;;13.77;4.68;;;;;;;;;;5053614;28;20183;-63
2022/02/02 09:52:56;;;;;;;13.15;3.47;;;;;;;;;;5053310;28;20244;-63
2022/02/02 09:55:49;;;;;;;12.60;3.22;;;;;;;;;;5052868;28;20229;-62
2022/02/02 09:58:55;;;;;;;11.13;3.20;;;;;;;;;;5056969;28;20191;-63
2022/02/02 10:04:18;;;;;;;17.05;4.97;;;;;;;;;;5051637;28;20288;-63
2022/02/02 10:06:56;;;;;;;15.32;4.22;;;;;;;;;;5057351;28;20183;-63
2022/02/02 10:09:45;;;;;;;19.67;3.85;;;;;;;;;;5056915;28;20197;-62
2022/02/02 10:12:59;;;;;;;19.95;3.75;;;;;;;;;;5056735;28;20734;-62
2022/02/02 10:15:22;;;;;;;14.53;3.27;;;;;;;;;;5056579;28;20282;-62
2022/02/02 10:17:55;;;;;;;16.92;5.53;;;;;;;;;;5056721;28;20761;-63
2022/02/02 10:20:24;;;;;;;22.08;5.72;;;;;;;;;;5056619;28;20232;-63
2022/02/02 10:22:52;;;;;;;7.97;4.15;;;;;;;;;;5056516;28;20199;-63
2022/02/02 10:25:26;;;;;;;16.00;4.18;;;;;;;;;;5057176;28;20614;-63
2022/02/02 10:27:53;;;;;;;12.93;3.95;;;;;;;;;;5056751;28;20565;-63
2022/02/02 10:30:22;;;;;;;7.75;3.95;;;;;;;;;;5057141;28;20202;-63
2022/02/02 10:32:51;;;;;;;17.45;3.63;;;;;;;;;;5056540;28;20257;-63
2022/02/02 10:35:32;;;;;;;20.65;3.22;;;;;;;;;;5056892;28;20198;-63
2022/02/02 10:38:01;;;;;;;16.23;3.53;;;;;;;;;;5057093;28;20293;-63
2022/02/02 10:40:42;;;;;;;11.00;4.70;;;;;;;;;;5056493;28;20204;-63
2022/02/02 10:43:20;;;;;;;10.27;3.80;;;;;;;;;;5056599;28;20258;-63
2022/02/02 10:45:47;;;;;;;20.33;3.72;;;;;;;;;;5056969;28;20190;-63
2022/02/02 10:48:28;;;;;;;18.02;2.92;;;;;;;;;;5056714;28;20201;-63
2022/02/02 10:51:04;;;;;;;8.73;2.60;;;;;;;;;;5056686;28;20240;-62
2022/02/02 10:56:33;;;;;;;15.25;3.50;;;;;;;;;;5050818;28;20272;-63
2022/02/02 10:59:26;;;;;;;13.57;3.28;;;;;;;;;;5056712;28;20202;-63
2022/02/02 11:07:26;;;;;;;13.55;4.05;;;;;;;;;;5055672;28;20232;-64
2022/02/02 11:09:53;;;;;;;9.20;3.65;;;;;;;;;;5054946;28;20333;-63
2022/02/02 11:12:25;;;;;;;11.98;3.92;;;;;;;;;;5055507;28;20219;-62
2022/02/02 11:14:55;;;;;;;19.60;4.15;;;;;;;;;;5055947;28;20187;-63
2022/02/02 11:17:24;;;;;;;10.10;3.58;;;;;;;;;;5055468;28;20299;-63
2022/02/02 11:19:56;;;;;;;17.43;6.20;;;;;;;;;;5055335;28;20241;-63
2022/02/02 11:22:30;;;;;;;12.65;3.83;;;;;;;;;;5055427;28;20925;-63
2022/02/02 11:24:59;;;;;;;6.18;3.10;;;;;;;;;;5055635;28;20185;-63
2022/02/02 11:27:36;;;;;;;5.97;2.38;;;;;;;;;;5055445;28;20198;-63
2022/02/02 11:30:05;;;;;;;12.85;3.83;;;;;;;;;;5055253;28;20200;-62
2022/02/02 11:32:43;;;;;;;19.40;4.95;;;;;;;;;;5055172;28;20705;-63
2022/02/02 11:35:29;;;;;;;11.23;3.70;;;;;;;;;;5055241;28;20235;-63
2022/02/02 11:37:58;;;;;;;11.35;3.70;;;;;;;;;;5055951;28;20271;-62
2022/02/02 11:40:27;;;;;;;11.43;2.60;;;;;;;;;;5055454;28;20549;-63
2022/02/02 11:42:58;;;;;;;13.93;3.77;;;;;;;;;;5055086;28;20656;-63
2022/02/02 11:45:37;;;;;;;15.55;4.15;;;;;;;;;;5055228;28;20440;-62
2022/02/02 11:48:08;;;;;;;17.45;6.68;;;;;;;;;;5054881;28;20202;-62
2022/02/02 11:50:51;;;;;;;16.35;4.32;;;;;;;;;;5055326;28;20191;-63
2022/02/02 11:53:37;;;;;;;8.57;2.67;;;;;;;;;;5055322;28;20209;-63
2022/02/02 11:56:05;;;;;;;4.23;2.10;;;;;;;;;;5054996;28;20244;-63
2022/02/02 11:58:34;;;;;;;15.43;3.22;;;;;;;;;;5054949;28;20543;-63
2022/02/02 12:01:09;;;;;;;6.30;2.97;;;;;;;;;;5055218;28;20594;-63
2022/02/02 12:03:43;;;;;;;17.90;4.60;;;;;;;;;;5055046;28;20194;-63
2022/02/02 12:06:30;;;;;;;11.83;3.23;;;;;;;;;;5054591;28;20179;-63
2022/02/02 12:09:07;;;;;;;10.85;2.90;;;;;;;;;;5054470;28;20460;-63
2022/02/02 12:57:12;;;;;;;8.53;1.70;;;;;;;;;;5053787;28;20640;-68
2022/02/02 13:00:06;;;;;;;8.20;2.30;;;;;;;;;;5053572;28;20449;-65
2022/02/02 13:02:36;;;;;;;10.23;2.50;;;;;;;;;;5054262;28;20448;-64
2022/02/02 13:05:03;;;;;;;10.53;2.40;;;;;;;;;;5053773;28;20562;-65
2022/02/02 13:07:31;;;;;;;14.23;2.00;;;;;;;;;;5053337;28;21010;-64
2022/02/02 13:09:59;;;;;;;5.70;1.93;;;;;;;;;;5053816;28;20448;-64
2022/02/02 13:12:34;;;;;;;9.30;2.37;;;;;;;;;;5052168;28;20473;-65
2022/02/02 13:17:57;;;;;;;7.78;2.53;;;;;;;;;;5052709;28;20179;-64
2022/02/02 13:20:38;;;;;;;7.00;2.60;;;;;;;;;;5053120;28;20208;-64
2022/02/02 13:23:11;;;;;;;5.70;2.50;;;;;;;;;;5053133;28;20218;-64
2022/02/02 13:25:42;;;;;;;5.90;1.73;;;;;;;;;;5053106;28;20650;-65
2022/02/02 13:28:12;;;;;;;7.40;2.60;;;;;;;;;;5053063;28;20479;-65
2022/02/02 13:30:45;;;;;;;8.15;3.55;;;;;;;;;;5052333;28;20502;-65
2022/02/02 13:33:16;;;;;;;6.20;2.30;;;;;;;;;;5052975;28;20207;-65
2022/02/02 13:35:55;;;;;;;3.22;2.03;;;;;;;;;;5053220;28;20603;-64
2022/02/02 13:38:47;;;;;;;4.68;1.77;;;;;;;;;;5052870;28;20197;-64
2022/02/02 13:44:23;;;;;;;6.45;1.98;;;;;;;;;;5052969;28;20194;-63
2022/02/02 13:47:11;;;;;;;6.13;3.00;;;;;;;;;;5052833;28;20201;-63
2022/02/02 13:52:36;;;;;;;4.20;1.90;;;;;;;;;;5050450;28;20478;-62
2022/02/02 13:55:27;;;;;;;5.03;1.90;;;;;;;;;;5053387;28;20222;-62
2022/02/02 13:58:27;;;;;;;10.17;2.13;;;;;;;;;;5053655;28;20446;-62
2022/02/02 14:01:02;;;;;;;8.02;2.50;;;;;;;;;;5053407;28;21000;-62
2022/02/02 14:09:18;;;;;;;8.33;2.30;;;;;;;;;;5046326;28;20915;-62
2022/02/02 14:33:49;;;;;;;8.70;2.85;;;;;;;;;;5051627;28;20647;-63
2022/02/02 14:36:20;;;;;;;9.77;2.50;;;;;;;;;;5052375;28;20744;-63
2022/02/02 14:38:52;;;;;;;5.38;1.90;;;;;;;;;;5052481;28;20666;-63
2022/02/02 14:41:28;;;;;;;9.85;2.25;;;;;;;;;;5052296;28;20191;-62
2022/02/02 14:44:00;;;;;;;9.70;2.05;;;;;;;;;;5055613;28;20232;-62
2022/02/02 14:46:34;;;;;;;2.50;1.50;;;;;;;;;;5056405;28;20184;-63
2022/02/02 14:49:13;;;;;;;11.00;2.45;;;;;;;;;;5056324;28;20190;-63
2022/02/02 14:51:50;;;;;;;4.43;3.03;;;;;;;;;;5056132;28;20214;-62
2022/02/02 15:05:36;;;;;;;4.72;2.38;;;;;;;;;;5055903;28;20783;-62
2022/02/02 15:25:00;;;;;;;4.50;1.90;;;;;;;;;;5055498;28;20233;-63
2022/02/02 15:27:31;;;;;;;9.13;2.22;;;;;;;;;;5055343;28;20635;-62
2022/02/02 15:30:11;;;;;;;4.43;1.98;;;;;;;;;;5055872;28;20221;-62
2022/02/02 15:32:42;;;;;;;7.22;2.10;;;;;;;;;;5055102;28;20214;-63
2022/02/02 15:35:10;;;;;;;6.90;2.42;;;;;;;;;;5056144;28;20516;-62
2022/02/02 15:37:48;;;;;;;6.13;2.90;;;;;;;;;;5055408;28;20292;-62
2022/02/02 15:40:17;;;;;;;6.35;2.35;;;;;;;;;;5055042;28;20190;-63
2022/02/02 15:43:05;;;;;;;7.73;2.03;;;;;;;;;;5055222;28;20205;-62
2022/02/02 16:02:18;;;;;;;9.68;2.20;;;;;;;;;;5035025;28;20229;-62
2022/02/02 16:04:45;;;;;;;13.43;2.83;;;;;;;;;;5034830;28;20199;-65
2022/02/02 16:07:22;;;;;;;5.10;2.30;;;;;;;;;;5035261;28;20613;-62
2022/02/02 16:09:53;;;;;;;9.27;2.40;;;;;;;;;;5035445;28;20268;-62
2022/02/02 16:12:26;;;;;;;7.70;3.47;;;;;;;;;;5034431;28;20200;-62
2022/02/02 16:15:13;;;;;;;14.70;4.10;;;;;;;;;;5035232;28;20188;-62
2022/02/02 16:18:04;;;;;;;14.20;3.30;;;;;;;;;;5034481;28;20940;-62
2022/02/02 16:31:47;;;;;;;12.02;4.35;;;;;;;;;;5034299;28;20193;-62
2022/02/02 16:37:03;;;;;;;5.38;4.32;;;;;;;;;;5034392;28;20525;-62
2022/02/02 16:39:34;;;;;;;7.97;3.08;;;;;;;;;;5034296;28;20591;-62
2022/02/02 16:44:48;;;;;;;10.18;4.00;;;;;;;;;;5034232;28;20222;-63
2022/02/02 16:47:15;;;;;;;9.57;4.27;;;;;;;;;;5034168;28;20200;-62
2022/02/02 16:49:42;;;;;;;8.85;4.78;;;;;;;;;;5033912;28;20483;-62
2022/02/02 16:52:09;;;;;;;10.02;3.80;;;;;;;;;;5033853;28;20201;-63
2022/02/02 16:54:41;;;;;;;6.93;3.47;;;;;;;;;;5037828;28;20324;-62
2022/02/02 16:57:25;;;;;;;16.42;3.78;;;;;;;;;;5054300;28;20200;-62
2022/02/02 17:30:15;;;;;;;13.20;3.90;;;;;;;;;;5053661;28;20284;-62
2022/02/02 17:32:53;;;;;;;19.05;4.70;;;;;;;;;;5053250;28;20606;-62
2022/02/02 17:35:32;;;;;;;11.20;4.57;;;;;;;;;;5053534;28;20181;-62
2022/02/02 17:38:07;;;;;;;16.13;4.82;;;;;;;;;;5053183;28;20180;-62
2022/02/02 17:44:01;;;;;;;13.65;5.15;;;;;;;;;;5017481;28;20627;-63
2022/02/02 18:19:54;;;;;;;15.15;6.70;;;;;;;;;;5120029;27;20556;-62
2022/02/02 18:22:27;;;;;;;13.38;5.95;;;;;;;;;;5152476;27;20284;-63
2022/02/02 18:25:03;;;;;;;16.42;6.53;;;;;;;;;;5152701;27;20207;-63
2022/02/02 18:27:39;;;;;;;16.00;6.82;;;;;;;;;;5152554;27;20227;-62
2022/02/02 18:30:23;;;;;;;19.80;6.80;;;;;;;;;;5152961;27;20186;-62
2022/02/02 18:33:04;;;;;;;16.98;7.75;;;;;;;;;;5151743;27;20185;-63
2022/02/02 18:35:39;;;;;;;21.13;9.10;;;;;;;;;;5152285;27;20263;-63
2022/02/02 18:46:48;;;;;;;32.78;14.65;;;;;;;;;;5140845;27;20602;-62
2022/02/02 18:49:26;;;;;;;17.70;10.48;;;;;;;;;;5152106;27;20182;-62
2022/02/02 18:54:52;;;;;;;23.92;10.15;;;;;;;;;;5151547;27;20192;-63
2022/02/02 18:57:31;;;;;;;17.08;8.40;;;;;;;;;;5151904;27;20213;-62
2022/02/02 19:00:18;;;;;;;23.45;8.45;;;;;;;;;;5151476;27;20240;-62
2022/02/02 19:03:05;;;;;;;17.90;7.97;;;;;;;;;;5142817;27;20194;-63
2022/02/02 19:53:10;;;;;;;18.60;8.15;;;;;;;;;;5115661;28;20275;-64
2022/02/02 19:55:42;;;;;;;14.77;6.70;;;;;;;;;;5115586;28;20191;-66
2022/02/02 20:04:07;;;;;;;18.67;7.60;;;;;;;;;;5115393;28;20242;-65
2022/02/02 20:06:48;;;;;;;22.17;7.60;;;;;;;;;;5115473;28;20236;-65
2022/02/02 20:09:25;;;;;;;20.15;8.55;;;;;;;;;;5115414;28;20204;-65
2022/02/02 20:11:53;;;;;;;20.20;7.82;;;;;;;;;;5115740;28;20183;-66
2022/02/02 20:14:20;;;;;;;25.50;9.13;;;;;;;;;;5114913;28;20660;-65
2022/02/02 20:16:49;;;;;;;17.63;8.48;;;;;;;;;;5115545;28;20591;-66
2022/02/02 20:19:18;;;;;;;27.52;7.75;;;;;;;;;;5115186;28;20226;-66
2022/02/02 20:21:49;;;;;;;20.42;8.00;;;;;;;;;;5115097;28;20192;-65
2022/02/02 20:24:20;;;;;;;26.25;8.65;;;;;;;;;;5115557;28;20214;-65
2022/02/02 20:26:49;;;;;;;13.10;6.55;;;;;;;;;;5115039;28;20245;-64
2022/02/02 20:29:16;;;;;;;15.55;7.40;;;;;;;;;;5114376;28;20644;-65
2022/02/02 20:31:44;;;;;;;19.52;8.15;;;;;;;;;;5114923;28;20230;-65
2022/02/02 20:34:13;;;;;;;15.70;8.02;;;;;;;;;;5115141;28;20259;-65
2022/02/02 20:36:40;;;;;;;13.93;7.45;;;;;;;;;;5115123;28;20196;-65
2022/02/02 20:39:17;;;;;;;17.70;8.13;;;;;;;;;;5114964;28;20248;-65
2022/02/02 20:41:44;;;;;;;18.90;6.57;;;;;;;;;;5114976;28;20277;-65
2022/02/02 20:44:21;;;;;;;18.30;7.10;;;;;;;;;;5114531;28;20648;-66
2022/02/02 20:47:18;;;;;;;16.58;6.63;;;;;;;;;;5114672;28;20179;-66
2022/02/02 21:03:42;;;;;;;14.57;6.30;;;;;;;;;;5114263;28;20316;-63
2022/02/02 21:06:23;;;;;;;12.30;6.40;;;;;;;;;;5114213;28;20615;-61
2022/02/02 21:09:16;;;;;;;20.83;6.93;;;;;;;;;;5115101;28;20215;-62
2022/02/02 21:13:38;;;;;;;15.00;6.78;;;;;;;;;;5114390;28;20204;-62
2022/02/02 21:14:41;;;;;;;19.40;6.00;;;;;;;;;;5114460;28;20669;-62
2022/02/02 21:17:18;;;;;;;15.55;6.43;;;;;;;;;;5114266;28;20200;-62
2022/02/02 21:19:51;;;;;;;30.05;9.88;;;;;;;;;;5114646;28;20210;-62
2022/02/02 21:22:21;;;;;;;22.70;7.20;;;;;;;;;;5115157;28;20242;-61
2022/02/02 21:24:54;;;;;;;29.25;14.25;;;;;;;;;;5114341;28;20230;-62
2022/02/02 21:27:26;;;;;;;20.60;7.10;;;;;;;;;;5114071;28;20282;-64
2022/02/02 21:29:53;;;;;;;15.05;6.40;;;;;;;;;;5114075;28;20221;-62
2022/02/02 21:32:23;;;;;;;23.80;7.30;;;;;;;;;;5114731;28;20213;-62
2022/02/02 21:34:52;;;;;;;24.60;7.50;;;;;;;;;;5114330;28;20204;-62
2022/02/02 21:37:21;;;;;;;14.35;6.00;;;;;;;;;;5114170;28;20197;-62
2022/02/02 21:40:04;;;;;;;17.85;7.10;;;;;;;;;;5113632;28;20245;-62
2022/02/02 21:42:31;;;;;;;19.25;6.78;;;;;;;;;;5114137;28;20226;-62
2022/02/02 21:44:58;;;;;;;16.50;7.47;;;;;;;;;;5113959;28;20226;-62
2022/02/02 21:47:26;;;;;;;18.48;6.40;;;;;;;;;;5114131;28;20593;-63
2022/02/02 21:49:56;;;;;;;27.08;7.00;;;;;;;;;;5113731;28;20725;-63
2022/02/02 21:52:25;;;;;;;24.63;7.53;;;;;;;;;;5114402;28;20187;-62
2022/02/02 21:54:52;;;;;;;22.55;7.10;;;;;;;;;;5114231;28;20235;-62
2022/02/02 21:57:19;;;;;;;26.65;8.73;;;;;;;;;;5114001;28;20199;-62
2022/02/02 21:59:49;;;;;;;23.30;8.18;;;;;;;;;;5113955;28;20306;-62
2022/02/02 22:02:16;;;;;;;19.80;7.55;;;;;;;;;;5113537;28;20239;-62
2022/02/02 22:04:43;;;;;;;26.95;7.75;;;;;;;;;;5113913;28;20237;-62
2022/02/02 22:07:10;;;;;;;26.77;7.55;;;;;;;;;;5114282;28;20624;-62
2022/02/02 22:09:39;;;;;;;20.77;7.80;;;;;;;;;;5113982;28;20198;-61
2022/02/02 22:12:07;;;;;;;20.30;7.70;;;;;;;;;;5114380;28;20235;-62
2022/02/02 22:14:34;;;;;;;19.63;7.00;;;;;;;;;;5113768;28;20282;-62
2022/02/02 22:17:03;;;;;;;24.75;7.25;;;;;;;;;;5114148;28;20196;-62
2022/02/02 22:19:30;;;;;;;22.33;9.00;;;;;;;;;;5113745;28;20553;-62
2022/02/02 22:21:57;;;;;;;22.88;8.25;;;;;;;;;;5113754;28;20288;-62
2022/02/02 22:24:24;;;;;;;29.95;8.35;;;;;;;;;;5114059;28;20203;-64
2022/02/02 22:26:53;;;;;;;28.85;9.90;;;;;;;;;;5113744;28;20338;-61
2022/02/02 22:29:20;;;;;;;31.05;7.78;;;;;;;;;;5113915;28;20261;-61
2022/02/02 22:31:47;;;;;;;20.88;9.05;;;;;;;;;;5113647;28;20646;-62
2022/02/02 22:34:15;;;;;;;17.73;7.88;;;;;;;;;;5113525;28;20196;-62
2022/02/02 22:36:42;;;;;;;24.17;8.65;;;;;;;;;;5113615;28;20307;-62
2022/02/02 22:39:10;;;;;;;26.27;10.07;;;;;;;;;;5113651;28;20196;-63
2022/02/02 22:41:38;;;;;;;20.88;10.35;;;;;;;;;;5113839;28;20200;-62
2022/02/02 22:44:11;;;;;;;20.13;8.63;;;;;;;;;;5113203;28;20195;-62
2022/02/02 22:46:38;;;;;;;26.08;9.48;;;;;;;;;;5113949;28;20216;-62
2022/02/02 22:49:06;;;;;;;27.48;9.93;;;;;;;;;;5113485;28;20538;-63
2022/02/02 22:51:33;;;;;;;20.83;8.70;;;;;;;;;;5115023;28;20193;-63
2022/02/02 22:54:01;;;;;;;30.23;10.35;;;;;;;;;;5117870;28;20200;-63
2022/02/02 22:56:28;;;;;;;25.63;11.57;;;;;;;;;;5117467;28;20200;-62
2022/02/02 22:58:58;;;;;;;25.77;11.38;;;;;;;;;;5117091;28;20294;-62
2022/02/02 23:01:28;;;;;;;22.80;11.10;;;;;;;;;;5116972;28;20193;-62
2022/02/02 23:03:56;;;;;;;28.77;11.52;;;;;;;;;;5116752;28;20249;-62